sensor_id;sensor_type;location;lat;lon;timestamp;P1;durP1;ratioP1;P2;durP2;ratioP2
27365;SDS011;14837;57.148;-2.144;2023-07-20T00:02:01;0.77;;;0.55;;
27365;SDS011;14837;57.148;-2.144;2023-07-20T00:04:29;2.20;;;0.80;;
27365;SDS011;14837;57.148;-2.144;2023-07-20T00:06:56;1.38;;;0.90;;
27365;SDS011;14837;57.148;-2.144;2023-07-20T00:09:22;1.20;;;0.70;;
27365;SDS011;14837;57.148;-2.144;2023-07-20T00:11:49;1.15;;;0.80;;
27365;SDS011;14837;57.148;-2.144;2023-07-20T00:14:19;0.77;;;0.70;;
27365;SDS011;14837;57.148;-2.144;2023-07-20T00:16:46;1.40;;;1.02;;
27365;SDS011;14837;57.148;-2.144;2023-07-20T00:19:13;0.75;;;0.70;;
27365;SDS011;14837;57.148;-2.144;2023-07-20T00:21:39;1.30;;;0.70;;
27365;SDS011;14837;57.148;-2.144;2023-07-20T00:24:07;1.02;;;0.82;;
27365;SDS011;14837;57.148;-2.144;2023-07-20T00:26:33;1.15;;;0.90;;
27365;SDS011;14837;57.148;-2.144;2023-07-20T00:29:00;1.77;;;0.90;;
27365;SDS011;14837;57.148;-2.144;2023-07-20T00:31:27;1.33;;;1.10;;
27365;SDS011;14837;57.148;-2.144;2023-07-20T00:33:53;1.15;;;0.88;;
27365;SDS011;14837;57.148;-2.144;2023-07-20T00:36:20;1.08;;;0.95;;
27365;SDS011;14837;57.148;-2.144;2023-07-20T00:38:47;2.35;;;1.20;;
27365;SDS011;14837;57.148;-2.144;2023-07-20T00:41:14;1.20;;;0.77;;
27365;SDS011;14837;57.148;-2.144;2023-07-20T00:43:40;2.00;;;1.00;;
27365;SDS011;14837;57.148;-2.144;2023-07-20T00:46:07;1.88;;;1.30;;
27365;SDS011;14837;57.148;-2.144;2023-07-20T00:48:34;1.90;;;1.52;;
27365;SDS011;14837;57.148;-2.144;2023-07-20T00:51:01;2.05;;;1.23;;
27365;SDS011;14837;57.148;-2.144;2023-07-20T00:53:28;1.65;;;0.90;;
27365;SDS011;14837;57.148;-2.144;2023-07-20T00:55:54;1.85;;;0.80;;
27365;SDS011;14837;57.148;-2.144;2023-07-20T00:58:21;1.27;;;1.08;;
27365;SDS011;14837;57.148;-2.144;2023-07-20T01:00:48;1.70;;;1.10;;
27365;SDS011;14837;57.148;-2.144;2023-07-20T01:03:14;1.20;;;0.90;;
27365;SDS011;14837;57.148;-2.144;2023-07-20T01:05:50;1.95;;;1.00;;
27365;SDS011;14837;57.148;-2.144;2023-07-20T01:08:23;1.20;;;1.10;;
27365;SDS011;14837;57.148;-2.144;2023-07-20T01:10:52;2.60;;;0.98;;
27365;SDS011;14837;57.148;-2.144;2023-07-20T01:13:20;1.70;;;1.20;;
27365;SDS011;14837;57.148;-2.144;2023-07-20T01:15:50;0.90;;;0.80;;
27365;SDS011;14837;57.148;-2.144;2023-07-20T01:18:19;1.58;;;1.48;;
27365;SDS011;14837;57.148;-2.144;2023-07-20T01:20:46;2.22;;;0.90;;
27365;SDS011;14837;57.148;-2.144;2023-07-20T01:25:45;0.95;;;0.77;;
27365;SDS011;14837;57.148;-2.144;2023-07-20T01:28:37;1.23;;;0.80;;
27365;SDS011;14837;57.148;-2.144;2023-07-20T01:33:45;2.22;;;1.17;;
27365;SDS011;14837;57.148;-2.144;2023-07-20T01:36:13;1.27;;;0.90;;
27365;SDS011;14837;57.148;-2.144;2023-07-20T01:38:40;1.70;;;1.20;;
27365;SDS011;14837;57.148;-2.144;2023-07-20T01:41:08;1.17;;;1.08;;
27365;SDS011;14837;57.148;-2.144;2023-07-20T01:43:34;2.72;;;1.10;;
27365;SDS011;14837;57.148;-2.144;2023-07-20T01:46:01;1.67;;;1.02;;
27365;SDS011;14837;57.148;-2.144;2023-07-20T01:48:27;2.70;;;1.60;;
27365;SDS011;14837;57.148;-2.144;2023-07-20T01:50:54;1.80;;;1.58;;
27365;SDS011;14837;57.148;-2.144;2023-07-20T01:53:21;1.67;;;1.40;;
27365;SDS011;14837;57.148;-2.144;2023-07-20T01:55:48;1.70;;;1.60;;
27365;SDS011;14837;57.148;-2.144;2023-07-20T01:58:15;1.92;;;1.40;;
27365;SDS011;14837;57.148;-2.144;2023-07-20T02:00:41;1.70;;;1.60;;
27365;SDS011;14837;57.148;-2.144;2023-07-20T02:03:08;2.40;;;1.60;;
27365;SDS011;14837;57.148;-2.144;2023-07-20T02:05:34;3.50;;;1.92;;
27365;SDS011;14837;57.148;-2.144;2023-07-20T02:08:01;2.30;;;1.85;;
27365;SDS011;14837;57.148;-2.144;2023-07-20T02:10:27;2.40;;;1.83;;
27365;SDS011;14837;57.148;-2.144;2023-07-20T02:12:54;2.05;;;1.95;;
27365;SDS011;14837;57.148;-2.144;2023-07-20T02:15:21;3.42;;;1.88;;
27365;SDS011;14837;57.148;-2.144;2023-07-20T02:17:47;3.28;;;2.10;;
27365;SDS011;14837;57.148;-2.144;2023-07-20T02:20:14;3.70;;;2.17;;
27365;SDS011;14837;57.148;-2.144;2023-07-20T02:22:40;3.03;;;2.20;;
27365;SDS011;14837;57.148;-2.144;2023-07-20T02:25:08;2.10;;;1.95;;
27365;SDS011;14837;57.148;-2.144;2023-07-20T02:27:34;2.25;;;1.98;;
27365;SDS011;14837;57.148;-2.144;2023-07-20T02:30:01;1.90;;;1.75;;
27365;SDS011;14837;57.148;-2.144;2023-07-20T02:32:28;1.77;;;1.67;;
27365;SDS011;14837;57.148;-2.144;2023-07-20T02:34:54;2.65;;;2.15;;
27365;SDS011;14837;57.148;-2.144;2023-07-20T02:37:21;3.03;;;2.83;;
27365;SDS011;14837;57.148;-2.144;2023-07-20T02:39:47;2.60;;;2.28;;
27365;SDS011;14837;57.148;-2.144;2023-07-20T02:42:14;2.08;;;1.90;;
27365;SDS011;14837;57.148;-2.144;2023-07-20T02:44:40;3.13;;;2.83;;
27365;SDS011;14837;57.148;-2.144;2023-07-20T02:47:07;3.83;;;2.38;;
27365;SDS011;14837;57.148;-2.144;2023-07-20T02:49:34;3.08;;;2.22;;
27365;SDS011;14837;57.148;-2.144;2023-07-20T02:52:00;2.70;;;2.50;;
27365;SDS011;14837;57.148;-2.144;2023-07-20T02:54:28;3.30;;;2.70;;
27365;SDS011;14837;57.148;-2.144;2023-07-20T02:56:54;2.95;;;2.67;;
27365;SDS011;14837;57.148;-2.144;2023-07-20T02:59:21;4.18;;;3.88;;
27365;SDS011;14837;57.148;-2.144;2023-07-20T03:01:47;3.90;;;3.60;;
27365;SDS011;14837;57.148;-2.144;2023-07-20T03:04:15;5.10;;;4.70;;
27365;SDS011;14837;57.148;-2.144;2023-07-20T03:06:43;5.65;;;5.25;;
27365;SDS011;14837;57.148;-2.144;2023-07-20T03:09:10;5.28;;;4.85;;
27365;SDS011;14837;57.148;-2.144;2023-07-20T03:11:36;5.22;;;4.72;;
27365;SDS011;14837;57.148;-2.144;2023-07-20T03:14:03;6.13;;;5.53;;
27365;SDS011;14837;57.148;-2.144;2023-07-20T03:16:29;6.43;;;5.80;;
27365;SDS011;14837;57.148;-2.144;2023-07-20T03:18:59;5.65;;;4.97;;
27365;SDS011;14837;57.148;-2.144;2023-07-20T03:21:26;6.30;;;5.70;;
27365;SDS011;14837;57.148;-2.144;2023-07-20T03:23:53;6.90;;;6.32;;
27365;SDS011;14837;57.148;-2.144;2023-07-20T03:26:20;7.50;;;6.97;;
27365;SDS011;14837;57.148;-2.144;2023-07-20T03:28:47;6.80;;;6.13;;
27365;SDS011;14837;57.148;-2.144;2023-07-20T03:31:13;8.93;;;7.40;;
27365;SDS011;14837;57.148;-2.144;2023-07-20T03:33:41;7.63;;;6.93;;
27365;SDS011;14837;57.148;-2.144;2023-07-20T03:36:08;8.02;;;7.25;;
27365;SDS011;14837;57.148;-2.144;2023-07-20T03:38:36;8.07;;;7.38;;
27365;SDS011;14837;57.148;-2.144;2023-07-20T03:41:03;9.15;;;8.35;;
27365;SDS011;14837;57.148;-2.144;2023-07-20T03:43:29;7.97;;;7.28;;
27365;SDS011;14837;57.148;-2.144;2023-07-20T03:45:56;8.40;;;7.70;;
27365;SDS011;14837;57.148;-2.144;2023-07-20T03:48:25;7.50;;;6.88;;
27365;SDS011;14837;57.148;-2.144;2023-07-20T03:50:52;7.65;;;6.88;;
27365;SDS011;14837;57.148;-2.144;2023-07-20T03:53:19;8.15;;;7.55;;
27365;SDS011;14837;57.148;-2.144;2023-07-20T03:55:47;6.60;;;6.03;;
27365;SDS011;14837;57.148;-2.144;2023-07-20T03:58:14;7.72;;;7.07;;
27365;SDS011;14837;57.148;-2.144;2023-07-20T04:00:44;8.02;;;7.40;;
27365;SDS011;14837;57.148;-2.144;2023-07-20T04:03:11;9.10;;;7.75;;
27365;SDS011;14837;57.148;-2.144;2023-07-20T04:05:38;9.10;;;8.20;;
27365;SDS011;14837;57.148;-2.144;2023-07-20T04:08:04;9.25;;;8.55;;
27365;SDS011;14837;57.148;-2.144;2023-07-20T04:10:31;8.77;;;7.97;;
27365;SDS011;14837;57.148;-2.144;2023-07-20T04:12:57;7.85;;;7.15;;
27365;SDS011;14837;57.148;-2.144;2023-07-20T04:15:24;9.18;;;8.27;;
27365;SDS011;14837;57.148;-2.144;2023-07-20T04:17:51;8.90;;;7.95;;
27365;SDS011;14837;57.148;-2.144;2023-07-20T04:20:17;8.43;;;7.68;;
27365;SDS011;14837;57.148;-2.144;2023-07-20T04:22:44;9.18;;;8.38;;
27365;SDS011;14837;57.148;-2.144;2023-07-20T04:25:11;8.77;;;7.97;;
27365;SDS011;14837;57.148;-2.144;2023-07-20T04:27:37;7.93;;;7.32;;
27365;SDS011;14837;57.148;-2.144;2023-07-20T04:30:06;7.90;;;7.30;;
27365;SDS011;14837;57.148;-2.144;2023-07-20T04:32:33;8.27;;;7.63;;
27365;SDS011;14837;57.148;-2.144;2023-07-20T04:35:05;8.95;;;8.18;;
27365;SDS011;14837;57.148;-2.144;2023-07-20T04:37:32;10.38;;;9.48;;
27365;SDS011;14837;57.148;-2.144;2023-07-20T04:39:59;9.27;;;8.52;;
27365;SDS011;14837;57.148;-2.144;2023-07-20T04:42:26;9.02;;;8.10;;
27365;SDS011;14837;57.148;-2.144;2023-07-20T04:44:53;11.10;;;10.10;;
27365;SDS011;14837;57.148;-2.144;2023-07-20T04:47:19;9.57;;;8.77;;
27365;SDS011;14837;57.148;-2.144;2023-07-20T04:49:46;9.40;;;8.52;;
27365;SDS011;14837;57.148;-2.144;2023-07-20T04:52:12;8.68;;;7.90;;
27365;SDS011;14837;57.148;-2.144;2023-07-20T04:54:39;8.25;;;7.45;;
27365;SDS011;14837;57.148;-2.144;2023-07-20T04:57:11;7.35;;;6.75;;
27365;SDS011;14837;57.148;-2.144;2023-07-20T04:59:37;7.90;;;7.20;;
27365;SDS011;14837;57.148;-2.144;2023-07-20T05:02:04;7.05;;;6.45;;
27365;SDS011;14837;57.148;-2.144;2023-07-20T05:04:31;7.65;;;6.95;;
27365;SDS011;14837;57.148;-2.144;2023-07-20T05:07:04;7.75;;;7.15;;
27365;SDS011;14837;57.148;-2.144;2023-07-20T05:09:31;6.68;;;6.07;;
27365;SDS011;14837;57.148;-2.144;2023-07-20T05:11:57;7.47;;;6.78;;
27365;SDS011;14837;57.148;-2.144;2023-07-20T05:14:24;6.72;;;6.13;;
27365;SDS011;14837;57.148;-2.144;2023-07-20T05:16:51;7.10;;;6.50;;
27365;SDS011;14837;57.148;-2.144;2023-07-20T05:19:17;7.43;;;6.82;;
27365;SDS011;14837;57.148;-2.144;2023-07-20T05:21:44;7.65;;;6.95;;
27365;SDS011;14837;57.148;-2.144;2023-07-20T05:24:10;7.38;;;6.78;;
27365;SDS011;14837;57.148;-2.144;2023-07-20T05:26:37;7.45;;;6.75;;
27365;SDS011;14837;57.148;-2.144;2023-07-20T05:29:04;6.97;;;6.35;;
27365;SDS011;14837;57.148;-2.144;2023-07-20T05:31:31;7.40;;;6.70;;
27365;SDS011;14837;57.148;-2.144;2023-07-20T05:33:58;6.43;;;5.93;;
27365;SDS011;14837;57.148;-2.144;2023-07-20T05:36:24;6.20;;;5.70;;
27365;SDS011;14837;57.148;-2.144;2023-07-20T05:38:51;6.32;;;5.82;;
27365;SDS011;14837;57.148;-2.144;2023-07-20T05:41:18;5.22;;;4.78;;
27365;SDS011;14837;57.148;-2.144;2023-07-20T05:43:44;5.53;;;5.07;;
27365;SDS011;14837;57.148;-2.144;2023-07-20T05:46:11;6.57;;;5.45;;
27365;SDS011;14837;57.148;-2.144;2023-07-20T05:48:37;6.72;;;6.13;;
27365;SDS011;14837;57.148;-2.144;2023-07-20T05:51:04;9.00;;;6.28;;
27365;SDS011;14837;57.148;-2.144;2023-07-20T05:53:31;5.88;;;5.38;;
27365;SDS011;14837;57.148;-2.144;2023-07-20T05:55:57;5.38;;;4.88;;
27365;SDS011;14837;57.148;-2.144;2023-07-20T05:58:24;6.32;;;5.72;;
27365;SDS011;14837;57.148;-2.144;2023-07-20T06:00:50;6.97;;;6.35;;
27365;SDS011;14837;57.148;-2.144;2023-07-20T06:03:17;5.43;;;4.85;;
27365;SDS011;14837;57.148;-2.144;2023-07-20T06:05:45;3.72;;;3.42;;
27365;SDS011;14837;57.148;-2.144;2023-07-20T06:08:12;4.38;;;3.97;;
27365;SDS011;14837;57.148;-2.144;2023-07-20T06:10:38;3.90;;;3.40;;
27365;SDS011;14837;57.148;-2.144;2023-07-20T06:13:06;4.50;;;4.10;;
27365;SDS011;14837;57.148;-2.144;2023-07-20T06:15:33;4.07;;;3.67;;
27365;SDS011;14837;57.148;-2.144;2023-07-20T06:18:01;4.82;;;4.40;;
27365;SDS011;14837;57.148;-2.144;2023-07-20T06:20:30;3.97;;;3.60;;
27365;SDS011;14837;57.148;-2.144;2023-07-20T06:22:56;4.47;;;3.60;;
27365;SDS011;14837;57.148;-2.144;2023-07-20T06:25:23;3.92;;;3.45;;
27365;SDS011;14837;57.148;-2.144;2023-07-20T06:27:50;3.92;;;3.53;;
27365;SDS011;14837;57.148;-2.144;2023-07-20T06:30:20;3.13;;;2.50;;
27365;SDS011;14837;57.148;-2.144;2023-07-20T06:32:47;3.13;;;2.83;;
27365;SDS011;14837;57.148;-2.144;2023-07-20T06:35:13;1.73;;;1.58;;
27365;SDS011;14837;57.148;-2.144;2023-07-20T06:37:40;4.55;;;1.75;;
27365;SDS011;14837;57.148;-2.144;2023-07-20T06:40:07;3.33;;;1.58;;
27365;SDS011;14837;57.148;-2.144;2023-07-20T06:42:38;2.00;;;1.50;;
27365;SDS011;14837;57.148;-2.144;2023-07-20T06:45:07;3.42;;;1.10;;
27365;SDS011;14837;57.148;-2.144;2023-07-20T06:47:37;1.70;;;1.42;;
27365;SDS011;14837;57.148;-2.144;2023-07-20T06:50:04;3.25;;;1.05;;
27365;SDS011;14837;57.148;-2.144;2023-07-20T06:52:30;1.40;;;1.15;;
27365;SDS011;14837;57.148;-2.144;2023-07-20T06:54:57;2.08;;;1.17;;
27365;SDS011;14837;57.148;-2.144;2023-07-20T06:57:28;2.45;;;1.30;;
27365;SDS011;14837;57.148;-2.144;2023-07-20T06:59:55;1.55;;;1.00;;
27365;SDS011;14837;57.148;-2.144;2023-07-20T07:02:21;1.85;;;1.15;;
27365;SDS011;14837;57.148;-2.144;2023-07-20T07:04:48;1.20;;;0.85;;
27365;SDS011;14837;57.148;-2.144;2023-07-20T07:07:15;3.20;;;0.88;;
27365;SDS011;14837;57.148;-2.144;2023-07-20T07:09:52;4.00;;;1.40;;
27365;SDS011;14837;57.148;-2.144;2023-07-20T07:12:19;2.00;;;1.20;;
27365;SDS011;14837;57.148;-2.144;2023-07-20T07:14:45;5.63;;;1.60;;
27365;SDS011;14837;57.148;-2.144;2023-07-20T07:17:12;1.75;;;0.90;;
27365;SDS011;14837;57.148;-2.144;2023-07-20T07:19:44;2.03;;;1.17;;
27365;SDS011;14837;57.148;-2.144;2023-07-20T07:22:14;1.67;;;0.98;;
27365;SDS011;14837;57.148;-2.144;2023-07-20T07:24:41;2.40;;;1.20;;
27365;SDS011;14837;57.148;-2.144;2023-07-20T07:27:08;2.42;;;1.23;;
27365;SDS011;14837;57.148;-2.144;2023-07-20T07:29:35;3.63;;;1.52;;
27365;SDS011;14837;57.148;-2.144;2023-07-20T07:32:02;1.70;;;1.42;;
27365;SDS011;14837;57.148;-2.144;2023-07-20T07:34:29;1.65;;;1.10;;
27365;SDS011;14837;57.148;-2.144;2023-07-20T07:36:56;2.35;;;1.40;;
27365;SDS011;14837;57.148;-2.144;2023-07-20T07:39:22;2.95;;;1.20;;
27365;SDS011;14837;57.148;-2.144;2023-07-20T07:41:53;2.75;;;1.30;;
27365;SDS011;14837;57.148;-2.144;2023-07-20T07:44:20;4.68;;;1.35;;
27365;SDS011;14837;57.148;-2.144;2023-07-20T07:46:47;1.60;;;1.30;;
27365;SDS011;14837;57.148;-2.144;2023-07-20T07:49:15;2.10;;;1.40;;
27365;SDS011;14837;57.148;-2.144;2023-07-20T07:51:42;3.30;;;2.00;;
27365;SDS011;14837;57.148;-2.144;2023-07-20T07:54:08;2.33;;;1.50;;
27365;SDS011;14837;57.148;-2.144;2023-07-20T07:56:35;1.90;;;1.10;;
27365;SDS011;14837;57.148;-2.144;2023-07-20T07:59:02;2.45;;;1.50;;
27365;SDS011;14837;57.148;-2.144;2023-07-20T08:01:29;2.15;;;1.60;;
27365;SDS011;14837;57.148;-2.144;2023-07-20T08:03:56;3.38;;;1.65;;
27365;SDS011;14837;57.148;-2.144;2023-07-20T08:06:23;1.90;;;1.27;;
27365;SDS011;14837;57.148;-2.144;2023-07-20T08:08:51;2.75;;;1.55;;
27365;SDS011;14837;57.148;-2.144;2023-07-20T08:11:17;2.03;;;1.80;;
27365;SDS011;14837;57.148;-2.144;2023-07-20T08:13:44;3.88;;;1.73;;
27365;SDS011;14837;57.148;-2.144;2023-07-20T08:16:11;2.45;;;1.77;;
27365;SDS011;14837;57.148;-2.144;2023-07-20T08:18:37;1.75;;;1.65;;
27365;SDS011;14837;57.148;-2.144;2023-07-20T08:21:05;2.17;;;1.90;;
27365;SDS011;14837;57.148;-2.144;2023-07-20T08:23:31;2.40;;;2.05;;
27365;SDS011;14837;57.148;-2.144;2023-07-20T08:25:58;2.13;;;1.92;;
27365;SDS011;14837;57.148;-2.144;2023-07-20T08:28:25;3.38;;;2.33;;
27365;SDS011;14837;57.148;-2.144;2023-07-20T08:30:53;3.20;;;2.08;;
27365;SDS011;14837;57.148;-2.144;2023-07-20T08:33:19;2.25;;;1.88;;
27365;SDS011;14837;57.148;-2.144;2023-07-20T08:35:46;2.47;;;2.20;;
27365;SDS011;14837;57.148;-2.144;2023-07-20T08:38:13;2.58;;;1.80;;
27365;SDS011;14837;57.148;-2.144;2023-07-20T08:40:41;2.80;;;2.00;;
27365;SDS011;14837;57.148;-2.144;2023-07-20T08:43:08;6.05;;;2.65;;
27365;SDS011;14837;57.148;-2.144;2023-07-20T08:45:35;2.25;;;2.00;;
27365;SDS011;14837;57.148;-2.144;2023-07-20T08:48:03;2.92;;;2.10;;
27365;SDS011;14837;57.148;-2.144;2023-07-20T08:50:31;3.35;;;2.10;;
27365;SDS011;14837;57.148;-2.144;2023-07-20T08:52:58;3.35;;;2.42;;
27365;SDS011;14837;57.148;-2.144;2023-07-20T08:55:25;3.33;;;3.03;;
27365;SDS011;14837;57.148;-2.144;2023-07-20T08:57:55;3.95;;;3.30;;
27365;SDS011;14837;57.148;-2.144;2023-07-20T09:00:23;3.92;;;2.97;;
27365;SDS011;14837;57.148;-2.144;2023-07-20T09:02:50;3.13;;;2.83;;
27365;SDS011;14837;57.148;-2.144;2023-07-20T09:05:21;6.32;;;3.72;;
27365;SDS011;14837;57.148;-2.144;2023-07-20T09:07:50;4.10;;;3.10;;
27365;SDS011;14837;57.148;-2.144;2023-07-20T09:10:17;4.03;;;3.55;;
27365;SDS011;14837;57.148;-2.144;2023-07-20T09:12:45;3.60;;;3.30;;
27365;SDS011;14837;57.148;-2.144;2023-07-20T09:15:11;4.65;;;4.20;;
27365;SDS011;14837;57.148;-2.144;2023-07-20T09:17:38;5.07;;;4.15;;
27365;SDS011;14837;57.148;-2.144;2023-07-20T09:20:06;3.97;;;3.67;;
27365;SDS011;14837;57.148;-2.144;2023-07-20T09:22:34;3.90;;;3.60;;
27365;SDS011;14837;57.148;-2.144;2023-07-20T09:25:01;3.63;;;3.33;;
27365;SDS011;14837;57.148;-2.144;2023-07-20T09:27:37;3.80;;;3.50;;
27365;SDS011;14837;57.148;-2.144;2023-07-20T09:30:05;5.45;;;3.78;;
27365;SDS011;14837;57.148;-2.144;2023-07-20T09:35:20;5.90;;;4.70;;
27365;SDS011;14837;57.148;-2.144;2023-07-20T09:37:59;4.78;;;4.38;;
27365;SDS011;14837;57.148;-2.144;2023-07-20T09:40:29;4.25;;;3.95;;
27365;SDS011;14837;57.148;-2.144;2023-07-20T09:42:59;6.70;;;4.13;;
27365;SDS011;14837;57.148;-2.144;2023-07-20T09:45:33;3.95;;;3.65;;
27365;SDS011;14837;57.148;-2.144;2023-07-20T09:48:03;5.00;;;4.32;;
27365;SDS011;14837;57.148;-2.144;2023-07-20T09:50:41;4.95;;;4.45;;
27365;SDS011;14837;57.148;-2.144;2023-07-20T09:53:12;4.45;;;3.85;;
27365;SDS011;14837;57.148;-2.144;2023-07-20T09:55:41;3.72;;;2.78;;
27365;SDS011;14837;57.148;-2.144;2023-07-20T09:58:10;2.65;;;2.45;;
27365;SDS011;14837;57.148;-2.144;2023-07-20T10:00:38;3.88;;;2.97;;
27365;SDS011;14837;57.148;-2.144;2023-07-20T10:03:07;3.50;;;3.15;;
27365;SDS011;14837;57.148;-2.144;2023-07-20T10:05:38;3.55;;;3.25;;
27365;SDS011;14837;57.148;-2.144;2023-07-20T10:08:06;6.75;;;4.43;;
27365;SDS011;14837;57.148;-2.144;2023-07-20T10:10:40;4.95;;;4.28;;
27365;SDS011;14837;57.148;-2.144;2023-07-20T10:13:07;5.25;;;4.75;;
27365;SDS011;14837;57.148;-2.144;2023-07-20T10:15:37;5.03;;;4.60;;
27365;SDS011;14837;57.148;-2.144;2023-07-20T10:18:07;5.80;;;5.30;;
27365;SDS011;14837;57.148;-2.144;2023-07-20T10:20:36;5.18;;;4.70;;
27365;SDS011;14837;57.148;-2.144;2023-07-20T10:23:03;5.03;;;4.63;;
27365;SDS011;14837;57.148;-2.144;2023-07-20T10:25:30;5.13;;;4.72;;
27365;SDS011;14837;57.148;-2.144;2023-07-20T10:27:57;6.35;;;5.75;;
27365;SDS011;14837;57.148;-2.144;2023-07-20T10:30:25;5.60;;;5.10;;
27365;SDS011;14837;57.148;-2.144;2023-07-20T10:32:52;6.15;;;5.55;;
27365;SDS011;14837;57.148;-2.144;2023-07-20T10:35:19;5.55;;;5.05;;
27365;SDS011;14837;57.148;-2.144;2023-07-20T10:37:50;5.15;;;4.72;;
27365;SDS011;14837;57.148;-2.144;2023-07-20T10:40:26;5.65;;;5.22;;
27365;SDS011;14837;57.148;-2.144;2023-07-20T10:43:03;5.65;;;4.95;;
27365;SDS011;14837;57.148;-2.144;2023-07-20T10:45:34;5.20;;;4.70;;
27365;SDS011;14837;57.148;-2.144;2023-07-20T10:48:05;4.30;;;4.00;;
27365;SDS011;14837;57.148;-2.144;2023-07-20T10:50:33;5.22;;;4.82;;
27365;SDS011;14837;57.148;-2.144;2023-07-20T10:53:10;5.22;;;4.75;;
27365;SDS011;14837;57.148;-2.144;2023-07-20T10:55:36;5.25;;;4.85;;
27365;SDS011;14837;57.148;-2.144;2023-07-20T10:58:07;4.72;;;4.32;;
27365;SDS011;14837;57.148;-2.144;2023-07-20T11:00:34;4.68;;;4.28;;
27365;SDS011;14837;57.148;-2.144;2023-07-20T11:03:00;4.35;;;3.88;;
27365;SDS011;14837;57.148;-2.144;2023-07-20T11:05:33;4.72;;;4.32;;
27365;SDS011;14837;57.148;-2.144;2023-07-20T11:08:05;4.53;;;4.13;;
27365;SDS011;14837;57.148;-2.144;2023-07-20T11:10:32;4.65;;;4.25;;
27365;SDS011;14837;57.148;-2.144;2023-07-20T11:13:17;4.50;;;4.10;;
27365;SDS011;14837;57.148;-2.144;2023-07-20T11:15:44;4.75;;;4.22;;
27365;SDS011;14837;57.148;-2.144;2023-07-20T11:18:13;4.25;;;3.83;;
27365;SDS011;14837;57.148;-2.144;2023-07-20T11:20:40;5.68;;;5.20;;
27365;SDS011;14837;57.148;-2.144;2023-07-20T11:23:07;5.40;;;5.00;;
27365;SDS011;14837;57.148;-2.144;2023-07-20T11:25:40;5.28;;;4.78;;
27365;SDS011;14837;57.148;-2.144;2023-07-20T11:28:07;4.80;;;4.40;;
27365;SDS011;14837;57.148;-2.144;2023-07-20T11:30:36;4.47;;;4.15;;
27365;SDS011;14837;57.148;-2.144;2023-07-20T11:33:02;5.32;;;4.82;;
27365;SDS011;14837;57.148;-2.144;2023-07-20T11:35:29;4.55;;;3.97;;
27365;SDS011;14837;57.148;-2.144;2023-07-20T11:37:55;4.32;;;3.92;;
27365;SDS011;14837;57.148;-2.144;2023-07-20T11:40:23;4.32;;;3.92;;
27365;SDS011;14837;57.148;-2.144;2023-07-20T11:42:52;3.72;;;3.42;;
27365;SDS011;14837;57.148;-2.144;2023-07-20T11:45:22;4.30;;;3.90;;
27365;SDS011;14837;57.148;-2.144;2023-07-20T11:47:48;4.50;;;4.10;;
27365;SDS011;14837;57.148;-2.144;2023-07-20T11:50:15;4.05;;;3.72;;
27365;SDS011;14837;57.148;-2.144;2023-07-20T11:52:42;4.60;;;4.20;;
27365;SDS011;14837;57.148;-2.144;2023-07-20T11:55:09;4.68;;;4.07;;
27365;SDS011;14837;57.148;-2.144;2023-07-20T11:57:36;4.75;;;4.35;;
27365;SDS011;14837;57.148;-2.144;2023-07-20T12:00:04;5.30;;;4.80;;
27365;SDS011;14837;57.148;-2.144;2023-07-20T12:02:35;5.13;;;4.70;;
27365;SDS011;14837;57.148;-2.144;2023-07-20T12:05:03;5.05;;;4.63;;
27365;SDS011;14837;57.148;-2.144;2023-07-20T12:07:34;4.90;;;4.35;;
27365;SDS011;14837;57.148;-2.144;2023-07-20T12:10:06;5.70;;;5.20;;
27365;SDS011;14837;57.148;-2.144;2023-07-20T12:12:35;5.50;;;5.10;;
27365;SDS011;14837;57.148;-2.144;2023-07-20T12:15:14;5.38;;;4.88;;
27365;SDS011;14837;57.148;-2.144;2023-07-20T12:17:49;4.78;;;4.18;;
27365;SDS011;14837;57.148;-2.144;2023-07-20T12:20:29;4.07;;;3.78;;
27365;SDS011;14837;57.148;-2.144;2023-07-20T12:22:58;4.00;;;3.67;;
27365;SDS011;14837;57.148;-2.144;2023-07-20T12:25:32;4.03;;;3.72;;
27365;SDS011;14837;57.148;-2.144;2023-07-20T12:28:02;3.70;;;3.40;;
27365;SDS011;14837;57.148;-2.144;2023-07-20T12:30:30;3.20;;;2.90;;
27365;SDS011;14837;57.148;-2.144;2023-07-20T12:32:57;3.88;;;3.58;;
27365;SDS011;14837;57.148;-2.144;2023-07-20T12:35:23;3.50;;;3.20;;
27365;SDS011;14837;57.148;-2.144;2023-07-20T12:37:50;3.00;;;2.78;;
27365;SDS011;14837;57.148;-2.144;2023-07-20T12:40:17;3.30;;;3.00;;
27365;SDS011;14837;57.148;-2.144;2023-07-20T12:42:44;3.85;;;2.60;;
27365;SDS011;14837;57.148;-2.144;2023-07-20T12:45:11;2.83;;;2.63;;
27365;SDS011;14837;57.148;-2.144;2023-07-20T12:47:38;2.33;;;2.13;;
27365;SDS011;14837;57.148;-2.144;2023-07-20T12:50:04;2.20;;;2.00;;
27365;SDS011;14837;57.148;-2.144;2023-07-20T12:52:35;3.17;;;2.35;;
27365;SDS011;14837;57.148;-2.144;2023-07-20T12:55:02;2.30;;;2.10;;
27365;SDS011;14837;57.148;-2.144;2023-07-20T12:57:29;3.47;;;2.35;;
27365;SDS011;14837;57.148;-2.144;2023-07-20T12:59:56;3.55;;;2.58;;
27365;SDS011;14837;57.148;-2.144;2023-07-20T13:02:22;2.70;;;2.50;;
27365;SDS011;14837;57.148;-2.144;2023-07-20T13:04:49;2.58;;;2.38;;
27365;SDS011;14837;57.148;-2.144;2023-07-20T13:07:15;2.72;;;2.53;;
27365;SDS011;14837;57.148;-2.144;2023-07-20T13:09:45;2.42;;;2.22;;
27365;SDS011;14837;57.148;-2.144;2023-07-20T13:12:11;2.58;;;1.92;;
27365;SDS011;14837;57.148;-2.144;2023-07-20T13:14:39;2.05;;;1.92;;
27365;SDS011;14837;57.148;-2.144;2023-07-20T13:17:05;3.28;;;2.17;;
27365;SDS011;14837;57.148;-2.144;2023-07-20T13:19:32;2.15;;;1.88;;
27365;SDS011;14837;57.148;-2.144;2023-07-20T13:21:58;2.22;;;1.70;;
27365;SDS011;14837;57.148;-2.144;2023-07-20T13:24:25;2.08;;;1.52;;
27365;SDS011;14837;57.148;-2.144;2023-07-20T13:26:52;1.95;;;1.75;;
27365;SDS011;14837;57.148;-2.144;2023-07-20T13:29:18;2.80;;;2.22;;
27365;SDS011;14837;57.148;-2.144;2023-07-20T13:31:45;1.63;;;1.52;;
27365;SDS011;14837;57.148;-2.144;2023-07-20T13:34:14;2.47;;;1.92;;
27365;SDS011;14837;57.148;-2.144;2023-07-20T13:36:44;1.98;;;1.70;;
27365;SDS011;14837;57.148;-2.144;2023-07-20T13:39:11;1.75;;;1.38;;
27365;SDS011;14837;57.148;-2.144;2023-07-20T13:41:38;2.15;;;1.40;;
27365;SDS011;14837;57.148;-2.144;2023-07-20T13:44:05;1.75;;;1.55;;
27365;SDS011;14837;57.148;-2.144;2023-07-20T13:46:32;2.88;;;1.60;;
27365;SDS011;14837;57.148;-2.144;2023-07-20T13:49:01;2.22;;;1.88;;
27365;SDS011;14837;57.148;-2.144;2023-07-20T13:51:28;2.33;;;1.83;;
27365;SDS011;14837;57.148;-2.144;2023-07-20T13:53:55;2.00;;;1.80;;
27365;SDS011;14837;57.148;-2.144;2023-07-20T13:56:22;2.40;;;1.58;;
27365;SDS011;14837;57.148;-2.144;2023-07-20T13:58:50;2.50;;;2.30;;
27365;SDS011;14837;57.148;-2.144;2023-07-20T14:01:17;3.50;;;1.95;;
27365;SDS011;14837;57.148;-2.144;2023-07-20T14:03:49;2.75;;;2.30;;
27365;SDS011;14837;57.148;-2.144;2023-07-20T14:06:19;2.72;;;2.53;;
27365;SDS011;14837;57.148;-2.144;2023-07-20T14:08:50;2.50;;;2.30;;
27365;SDS011;14837;57.148;-2.144;2023-07-20T14:11:16;2.42;;;2.22;;
27365;SDS011;14837;57.148;-2.144;2023-07-20T14:13:46;2.08;;;1.88;;
27365;SDS011;14837;57.148;-2.144;2023-07-20T14:16:13;2.40;;;2.20;;
27365;SDS011;14837;57.148;-2.144;2023-07-20T14:18:40;1.80;;;1.52;;
27365;SDS011;14837;57.148;-2.144;2023-07-20T14:21:07;2.28;;;1.90;;
27365;SDS011;14837;57.148;-2.144;2023-07-20T14:23:34;1.65;;;1.52;;
27365;SDS011;14837;57.148;-2.144;2023-07-20T14:26:02;1.60;;;1.50;;
27365;SDS011;14837;57.148;-2.144;2023-07-20T14:28:35;2.03;;;1.60;;
27365;SDS011;14837;57.148;-2.144;2023-07-20T14:31:02;2.10;;;1.50;;
27365;SDS011;14837;57.148;-2.144;2023-07-20T14:33:29;1.52;;;1.40;;
27365;SDS011;14837;57.148;-2.144;2023-07-20T14:35:55;1.67;;;1.52;;
27365;SDS011;14837;57.148;-2.144;2023-07-20T14:38:22;1.83;;;1.35;;
27365;SDS011;14837;57.148;-2.144;2023-07-20T14:40:48;2.13;;;1.90;;
27365;SDS011;14837;57.148;-2.144;2023-07-20T14:43:18;2.15;;;1.60;;
27365;SDS011;14837;57.148;-2.144;2023-07-20T14:45:45;1.83;;;1.20;;